createdAt,value
2022-08-03T02:23:16.319Z,0.1
2022-08-03T02:25:01.380Z,0.2
2022-08-03T02:26:01.823Z,0.3
2022-08-03T02:28:01.560Z,0.4
2022-08-03T02:29:01.117Z,0.5
2022-08-03T02:31:01.107Z,0.6
2022-08-03T02:32:01.114Z,0.7
2022-08-03T02:33:01.318Z,0.8
2022-08-03T02:34:01.105Z,0.9
2022-08-03T02:36:01.122Z,1.2
2022-08-03T02:37:01.353Z,1.3
2022-08-03T02:38:01.334Z,1.5
2022-08-03T02:39:02.138Z,1.6
2022-08-03T02:40:01.119Z,1.8
2022-08-03T02:41:01.119Z,2.0
2022-08-03T02:42:01.111Z,2.2
2022-08-03T02:43:01.341Z,2.5
2022-08-03T02:44:06.732Z,2.7
2022-08-03T02:46:01.110Z,3.5
2022-08-03T02:48:01.307Z,4.1
2022-08-03T02:49:01.116Z,4.7
2022-08-03T02:51:01.092Z,6.4
2022-08-03T02:52:01.107Z,7.3
2022-08-03T02:53:01.329Z,8.5
2022-08-03T02:54:01.102Z,9.6
2022-08-03T02:56:01.110Z,13.0
2022-08-03T02:57:01.100Z,14.7
2022-08-03T02:58:01.792Z,17.1
2022-08-03T02:59:01.108Z,19.5
2022-08-03T03:00:01.905Z,23.1
2022-08-03T03:01:01.409Z,26.5
2022-08-03T03:02:01.110Z,29.9
2022-08-03T03:03:01.310Z,34.6
2022-08-03T03:04:01.147Z,39.3
2022-08-03T03:05:51.862Z,45.9
2022-08-03T03:06:01.339Z,52.5
2022-08-03T03:07:01.743Z,59.1
2022-08-03T03:08:01.690Z,68.2
2022-08-03T03:09:01.203Z,77.3
2022-08-03T03:10:01.580Z,89.5
2022-08-03T03:11:01.108Z,101.8
2022-08-03T03:12:01.107Z,114.1
2022-08-03T03:13:01.307Z,130.4
2022-08-03T03:14:01.103Z,146.7
2022-08-03T03:16:01.106Z,189.8
2022-08-03T03:17:01.106Z,211.3
2022-08-03T03:18:01.320Z,239.6
2022-08-03T03:19:01.366Z,267.9
2022-08-03T03:21:01.105Z,340.9
2022-08-03T03:22:01.111Z,377.5
2022-08-03T03:23:01.340Z,424.2
2022-08-03T03:24:01.112Z,470.9
2022-08-03T03:26:01.120Z,588.3
2022-08-03T03:27:01.119Z,646.9
2022-08-03T03:28:01.333Z,720.9
2022-08-03T03:29:01.110Z,794.8
2022-08-03T03:30:01.589Z,886.9
2022-08-03T03:31:01.104Z,978.9
2022-08-03T03:32:02.567Z,1071.0
2022-08-03T03:33:01.323Z,1182.1
2022-08-03T03:34:01.113Z,1293.3
2022-08-03T03:35:01.147Z,1422.7
2022-08-03T03:36:01.111Z,1552.1
2022-08-03T03:37:01.112Z,1681.5
2022-08-03T03:38:01.352Z,1829.5
2022-08-03T03:39:15.280Z,1977.5
2022-08-03T03:41:01.139Z,2302.4
2022-08-03T03:42:01.120Z,2464.9
2022-08-03T03:43:01.579Z,2638.8
2022-08-03T03:44:01.109Z,2812.7
2022-08-03T03:46:01.113Z,3192.2
2022-08-03T03:47:01.110Z,3381.9
2022-08-03T03:48:01.357Z,3601.5
2022-08-03T03:49:01.157Z,3821.0
2022-08-03T03:50:01.418Z,4085.1
2022-08-03T03:51:01.117Z,4349.3
2022-08-03T03:52:01.117Z,4613.4
2022-08-03T03:53:01.577Z,4925.3
2022-08-03T03:54:01.115Z,5237.1
2022-08-03T03:55:01.828Z,5606.5
2022-08-03T03:56:02.315Z,5975.8
2022-08-03T03:58:01.562Z,6433.7
2022-08-03T03:59:01.101Z,6860.1
2022-08-03T04:01:01.161Z,7802.1
2022-08-03T04:02:01.104Z,8252.9
2022-08-03T04:03:01.309Z,8767.9
2022-08-03T04:04:01.093Z,9225.7
2022-08-03T04:05:01.132Z,9713.2
2022-08-03T04:06:01.103Z,10127.4
2022-08-03T04:07:01.097Z,10541.6
2022-08-03T04:08:01.325Z,10963.6
2022-08-03T04:09:01.099Z,11306.3
2022-08-03T04:10:15.476Z,11633.2
2022-08-03T04:11:01.104Z,11872.5
2022-08-03T04:12:01.111Z,12111.7
2022-08-03T04:13:01.315Z,12254.9
2022-08-03T04:14:01.665Z,12398.1
2022-08-03T04:16:01.160Z,12630.1
2022-08-03T04:17:01.118Z,12746.1
2022-08-03T04:18:01.389Z,12859.5
2022-08-03T04:19:01.100Z,12972.8
2022-08-03T04:20:01.115Z,13130.1
2022-08-03T04:21:01.103Z,13287.3
2022-08-03T04:22:01.394Z,13444.6
2022-08-03T04:23:01.322Z,13686.1
2022-08-03T04:24:01.103Z,13927.5
2022-08-03T04:26:01.103Z,14771.5
2022-08-03T04:27:01.105Z,15193.5
2022-08-03T04:28:07.913Z,15817.1
2022-08-03T04:29:01.083Z,16440.6
2022-08-03T04:31:01.111Z,17986.2
2022-08-03T04:32:01.101Z,18759.0
2022-08-03T04:33:01.345Z,19664.2
2022-08-03T04:34:01.530Z,20569.4
2022-08-03T04:35:01.116Z,21560.4
2022-08-03T04:36:03.332Z,22551.4
2022-08-03T04:37:01.104Z,23542.4
2022-08-03T04:38:01.337Z,24557.3
2022-08-03T04:39:01.107Z,25572.3
2022-08-03T04:41:01.379Z,27204.7
2022-08-03T04:42:02.373Z,28020.9
2022-08-03T04:43:01.317Z,28639.1
2022-08-03T04:44:01.113Z,29257.4
2022-08-03T04:46:01.117Z,30046.6
2022-08-03T04:47:01.107Z,30441.2
2022-08-03T04:48:01.693Z,30600.7
2022-08-03T04:49:01.163Z,30760.1
2022-08-03T04:51:01.104Z,31262.7
2022-08-03T04:52:01.102Z,31513.9
2022-08-03T04:53:01.319Z,31922.3
2022-08-03T04:54:01.112Z,32330.6
2022-08-03T04:56:01.282Z,33573.0
2022-08-03T04:57:01.109Z,34194.2
2022-08-03T04:58:01.318Z,35113.1
2022-08-03T04:59:01.109Z,36032.1
2022-08-03T05:01:01.144Z,38484.7
2022-08-03T05:02:01.167Z,39711.1
2022-08-03T05:03:01.332Z,41115.9
2022-08-03T05:04:01.118Z,42520.8
2022-08-03T05:06:02.088Z,45198.1
2022-08-03T05:07:11.805Z,46536.8
2022-08-03T05:08:01.319Z,47594.0
2022-08-03T05:09:01.112Z,48651.2
2022-08-03T05:11:01.113Z,50231.3
2022-08-03T05:12:01.117Z,51021.4
2022-08-03T05:13:01.328Z,51275.9
2022-08-03T05:14:01.118Z,51530.3
2022-08-03T05:16:01.119Z,51029.9
2022-08-03T05:17:01.129Z,50779.7
2022-08-03T05:18:01.330Z,50262.5
2022-08-03T05:19:01.226Z,49745.2
2022-08-03T05:20:01.600Z,49215.3
2022-08-03T05:21:01.112Z,48685.5
2022-08-03T05:22:01.135Z,48155.6
2022-08-03T05:23:01.333Z,48139.4
2022-08-03T05:24:01.122Z,48123.2
2022-08-03T05:26:01.124Z,49698.5
2022-08-03T05:27:01.114Z,50486.2
2022-08-03T05:28:01.338Z,51603.5
2022-08-03T05:29:01.115Z,52720.9
2022-08-03T05:30:26.664Z,54072.3
2022-08-03T05:32:03.706Z,55423.7
2022-08-03T05:33:01.385Z,56775.1
2022-08-03T05:34:01.105Z,58256.3
2022-08-03T05:35:01.101Z,59737.6
2022-08-03T05:36:05.102Z,61046.4
2022-08-03T05:37:01.109Z,62355.2
2022-08-03T05:38:01.372Z,63664.0
2022-08-03T05:39:02.853Z,64467.6
2022-08-03T05:40:01.105Z,65271.2
2022-08-03T05:41:20.637Z,65359.1
2022-08-03T05:42:01.084Z,65447.1
2022-08-03T05:43:01.335Z,65535.0
2022-08-03T05:45:01.109Z,65535.0
2022-08-03T06:00:01.122Z,65535.0
2022-08-03T06:15:01.127Z,65535.0
2022-08-03T06:30:01.105Z,65535.0
2022-08-03T06:45:01.116Z,65535.0
2022-08-03T07:00:08.775Z,65535.0
2022-08-03T07:15:02.487Z,65535.0
2022-08-03T07:30:01.108Z,65535.0
2022-08-03T07:45:01.111Z,65535.0
2022-08-03T08:00:02.117Z,65535.0
2022-08-03T08:15:01.127Z,65535.0
2022-08-03T08:30:08.755Z,65535.0
2022-08-03T08:45:01.115Z,65535.0
2022-08-03T09:00:01.202Z,65535.0
2022-08-03T09:15:16.259Z,65535.0
2022-08-03T09:30:01.108Z,65535.0
2022-08-03T09:45:01.102Z,65535.0
2022-08-03T10:00:07.786Z,65535.0
2022-08-03T10:15:01.449Z,65535.0
2022-08-03T10:30:01.148Z,65535.0
2022-08-03T10:45:01.419Z,65535.0
2022-08-03T11:00:02.451Z,65535.0
2022-08-03T11:15:01.328Z,65535.0
2022-08-03T11:30:01.428Z,65535.0
2022-08-03T11:45:01.513Z,65535.0
2022-08-03T12:00:01.194Z,65535.0
2022-08-03T12:15:01.197Z,65535.0
2022-08-03T12:30:01.280Z,65535.0
2022-08-03T12:45:01.164Z,65535.0
2022-08-03T13:00:01.177Z,65535.0
2022-08-03T13:15:01.176Z,65535.0
2022-08-03T13:30:01.593Z,65535.0
2022-08-03T13:45:01.116Z,65535.0
2022-08-03T14:00:01.103Z,65535.0
2022-08-03T14:15:01.625Z,65535.0
2022-08-03T14:30:01.167Z,65535.0
2022-08-03T14:45:04.760Z,65535.0
2022-08-03T15:00:02.241Z,65535.0
2022-08-03T15:15:01.111Z,65535.0
2022-08-03T15:30:06.341Z,65535.0
2022-08-03T15:45:01.104Z,65535.0
2022-08-03T16:00:02.475Z,65535.0
2022-08-03T16:15:01.379Z,65535.0
2022-08-03T16:30:01.116Z,65535.0
2022-08-03T16:45:01.102Z,65535.0
2022-08-03T16:58:01.510Z,65514.7
2022-08-03T16:59:04.194Z,65494.5
2022-08-03T17:00:01.107Z,65474.2
2022-08-03T17:01:01.149Z,64942.9
2022-08-03T17:02:01.162Z,64411.5
2022-08-03T17:03:01.103Z,63631.7
2022-08-03T17:04:06.022Z,62851.8
2022-08-03T17:05:01.101Z,62071.9
2022-08-03T17:06:01.678Z,61282.3
2022-08-03T17:07:01.103Z,60492.7
2022-08-03T17:08:01.110Z,59868.6
2022-08-03T17:09:01.348Z,59244.5
2022-08-03T17:10:01.105Z,58620.3
2022-08-03T17:11:01.139Z,58293.4
2022-08-03T17:12:01.109Z,57966.5
2022-08-03T17:13:01.108Z,57843.5
2022-08-03T17:14:10.162Z,57720.6
2022-08-03T17:15:01.398Z,57597.7
2022-08-03T17:16:02.080Z,58129.0
2022-08-03T17:17:01.450Z,58660.3
2022-08-03T17:18:01.108Z,59431.0
2022-08-03T17:19:04.315Z,60201.7
2022-08-03T17:20:01.101Z,60972.3
2022-08-03T17:21:01.148Z,61761.9
2022-08-03T17:22:01.343Z,62551.5
2022-08-03T17:23:01.111Z,63003.5
2022-08-03T17:24:04.510Z,63455.4
2022-08-03T17:25:01.104Z,63907.3
2022-08-03T17:26:01.891Z,64189.8
2022-08-03T17:27:01.107Z,64472.3
2022-08-03T17:28:42.837Z,64590.4
2022-08-03T17:29:13.519Z,64708.5
2022-08-03T17:30:01.103Z,64826.7
2022-08-03T17:33:01.110Z,64835.9
2022-08-03T17:34:02.134Z,64845.1
2022-08-03T17:35:01.111Z,64854.3
2022-08-03T17:36:01.104Z,64663.6
2022-08-03T17:37:04.031Z,64472.9
2022-08-03T17:38:03.553Z,64235.9
2022-08-03T17:39:04.877Z,63998.9
2022-08-03T17:40:01.167Z,63761.9
2022-08-03T17:41:01.109Z,63227.6
2022-08-03T17:42:01.126Z,62693.3
2022-08-03T17:43:01.113Z,61942.2
2022-08-03T17:44:30.247Z,61191.1
2022-08-03T17:45:01.895Z,60440.1
2022-08-03T17:46:01.109Z,59536.3
2022-08-03T17:47:01.117Z,58632.5
2022-08-03T17:48:01.122Z,57496.7
2022-08-03T17:49:01.758Z,56361.0
2022-08-03T17:50:01.116Z,55225.3
2022-08-03T17:51:01.118Z,54188.5
2022-08-03T17:52:01.116Z,53151.7
2022-08-03T17:53:01.116Z,52274.5
2022-08-03T17:54:02.343Z,51397.4
2022-08-03T17:55:51.239Z,50520.3
2022-08-03T17:56:04.307Z,49610.5
2022-08-03T17:57:21.763Z,48700.7
2022-08-03T17:58:01.684Z,47685.2
2022-08-03T17:59:16.373Z,46669.7
2022-08-03T18:00:01.112Z,45654.3
2022-08-03T18:01:01.119Z,44533.8
2022-08-03T18:02:03.493Z,43413.3
2022-08-03T18:03:01.264Z,42319.0
2022-08-03T18:05:01.283Z,41224.7
2022-08-03T18:06:09.162Z,39946.6
2022-08-03T18:07:01.098Z,38760.3
2022-08-03T18:08:01.797Z,37439.9
2022-08-03T18:10:03.158Z,34916.8
2022-08-03T18:10:05.387Z,36178.3
2022-08-03T18:11:03.246Z,33566.9
2022-08-03T18:12:01.205Z,32419.2
2022-08-03T18:13:01.101Z,31203.3
2022-08-03T18:14:17.304Z,30290.5
2022-08-03T18:16:01.116Z,28403.0
2022-08-03T18:17:01.341Z,27661.1
2022-08-03T18:18:02.540Z,26851.1
2022-08-03T18:19:15.416Z,26247.0
2022-08-03T18:20:04.900Z,25642.9
2022-08-03T18:21:01.127Z,25162.1
2022-08-03T18:22:02.505Z,24681.4
2022-08-03T18:23:01.108Z,24265.7
2022-08-03T18:24:01.609Z,23850.1
2022-08-03T18:25:01.321Z,23434.4
2022-08-03T18:26:01.192Z,23042.9
2022-08-03T18:27:02.365Z,22651.3
2022-08-03T18:28:01.124Z,22286.8
2022-08-03T18:29:03.997Z,21922.3
2022-08-03T18:30:01.343Z,21557.7
2022-08-03T18:31:03.196Z,21242.5
2022-08-03T18:32:02.673Z,20927.3
2022-08-03T18:34:15.973Z,20673.1
2022-08-03T18:34:32.731Z,20418.9
2022-08-03T18:35:01.255Z,20164.7
2022-08-03T18:36:01.118Z,19953.2
2022-08-03T18:37:01.200Z,19741.7
2022-08-03T18:38:01.125Z,19552.9
2022-08-03T18:39:12.405Z,19364.2
2022-08-03T18:41:01.348Z,19083.1
2022-08-03T18:42:01.112Z,18866.2
2022-08-03T18:43:08.095Z,18541.3
2022-08-03T18:44:09.160Z,18257.7
2022-08-03T18:45:55.373Z,17974.0
2022-08-03T18:46:01.260Z,17595.1
2022-08-03T18:47:07.113Z,17228.7
2022-08-03T18:48:01.095Z,16751.7
2022-08-03T18:49:08.161Z,16281.7
2022-08-03T18:50:01.648Z,15811.7
2022-08-03T18:51:01.316Z,15223.7
2022-08-03T18:52:01.108Z,14653.3
2022-08-03T18:53:01.099Z,13990.6
2022-08-03T18:54:06.060Z,13374.1
2022-08-03T18:55:35.248Z,12691.9
2022-08-03T18:57:01.099Z,11512.5
2022-08-03T18:58:01.138Z,10971.7
2022-08-03T18:59:02.352Z,10431.0
2022-08-03T19:01:03.398Z,9390.7
2022-08-03T19:02:04.042Z,8891.1
2022-08-03T19:03:01.131Z,8450.7
2022-08-03T19:04:01.104Z,8010.3
2022-08-03T19:05:01.843Z,7569.9
2022-08-03T19:06:02.571Z,7202.5
2022-08-03T19:07:01.177Z,6835.1
2022-08-03T19:08:01.300Z,6520.5
2022-08-03T19:09:01.109Z,6205.9
2022-08-03T19:11:01.893Z,5671.2
2022-08-03T19:12:11.410Z,5385.5
2022-08-03T19:13:01.149Z,5126.1
2022-08-03T19:14:01.106Z,4866.6
2022-08-03T19:16:02.590Z,4372.4
2022-08-03T19:17:01.113Z,4137.7
2022-08-03T19:18:01.377Z,3926.8
2022-08-03T19:19:01.118Z,3715.9
2022-08-03T19:21:01.903Z,3313.3
2022-08-03T19:22:01.115Z,3121.6
2022-08-03T19:23:01.149Z,2946.1
2022-08-03T19:24:01.109Z,2770.7
2022-08-03T19:25:01.547Z,2595.2
2022-08-03T19:26:01.328Z,2435.9
2022-08-03T19:28:01.127Z,2259.3
2022-08-03T19:29:01.248Z,2115.4
2022-08-03T19:30:26.517Z,1956.5
2022-08-03T19:31:02.430Z,1797.7
2022-08-03T19:32:06.437Z,1668.1
2022-08-03T19:33:01.113Z,1525.2
2022-08-03T19:34:01.237Z,1409.7
2022-08-03T19:36:01.106Z,1167.9
2022-08-03T19:37:01.309Z,1067.5
2022-08-03T19:38:01.104Z,958.3
2022-08-03T19:39:01.137Z,872.4
2022-08-03T19:41:01.101Z,694.1
2022-08-03T19:42:06.383Z,622.1
2022-08-03T19:43:01.108Z,562.5
2022-08-03T19:44:01.104Z,503.0
2022-08-03T19:45:14.279Z,458.5
2022-08-03T19:46:05.638Z,410.3
2022-08-03T19:47:01.322Z,362.1
2022-08-03T19:48:01.107Z,324.6
2022-08-03T19:49:01.116Z,287.1
2022-08-03T19:50:15.159Z,249.7
2022-08-03T19:51:01.116Z,221.2
2022-08-03T19:52:03.303Z,192.7
2022-08-03T19:53:01.145Z,171.7
2022-08-03T19:54:01.110Z,150.7
2022-08-03T19:55:01.626Z,129.7
2022-08-03T19:56:01.112Z,114.4
2022-08-03T19:57:01.816Z,99.1
2022-08-03T19:58:01.152Z,88.1
2022-08-03T19:59:01.113Z,77.1
2022-08-03T20:01:01.116Z,58.3
2022-08-03T20:02:01.290Z,50.5
2022-08-03T20:03:01.244Z,45.0
2022-08-03T20:04:01.125Z,39.5
2022-08-03T20:06:01.120Z,30.2
2022-08-03T20:07:01.470Z,26.3
2022-08-03T20:08:01.142Z,23.5
2022-08-03T20:09:01.119Z,20.7
2022-08-03T20:11:01.114Z,15.9
2022-08-03T20:12:01.451Z,13.9
2022-08-03T20:13:01.175Z,12.5
2022-08-03T20:14:01.115Z,11.0
2022-08-03T20:16:01.120Z,8.5
2022-08-03T20:17:01.309Z,7.4
2022-08-03T20:18:01.204Z,6.6
2022-08-03T20:19:01.116Z,5.8
2022-08-03T20:22:01.301Z,4.5
2022-08-03T20:23:01.135Z,3.9
2022-08-03T20:24:02.150Z,3.5
2022-08-03T20:25:01.078Z,3.1
2022-08-03T20:26:02.622Z,2.7
2022-08-03T20:27:01.317Z,2.4
2022-08-03T20:28:07.655Z,2.1
2022-08-03T20:29:01.111Z,1.9
2022-08-03T20:30:05.604Z,1.7
2022-08-03T20:31:02.902Z,1.5
2022-08-03T20:32:02.403Z,1.4
2022-08-03T20:33:01.352Z,1.2
2022-08-03T20:34:01.136Z,1.1
2022-08-03T20:35:01.111Z,0.9
2022-08-03T20:36:01.115Z,0.8
2022-08-03T20:37:01.321Z,0.7
2022-08-03T20:38:01.257Z,0.6
2022-08-03T20:39:01.171Z,0.5
2022-08-03T20:41:01.537Z,0.4
2022-08-03T20:42:01.333Z,0.3
2022-08-03T20:44:01.146Z,0.2
2022-08-03T20:45:04.964Z,0.1
2022-08-03T21:13:00.054Z,29377.6
2022-08-03T21:13:06.304Z,12102.2
